createdAt,value
2018-08-30T00:00:39.816Z,15.89
2018-08-30T00:01:39.800Z,15.85
2018-08-30T00:02:39.771Z,15.74
2018-08-30T00:03:39.767Z,15.80
2018-08-30T00:04:39.760Z,15.76
2018-08-30T00:05:41.716Z,15.85
2018-08-30T00:07:30.481Z,15.77
2018-08-30T00:08:29.138Z,15.78
2018-08-30T00:09:29.222Z,15.77
2018-08-30T00:10:29.155Z,15.76
2018-08-30T00:11:29.647Z,15.77
2018-08-30T00:12:29.066Z,15.73
2018-08-30T00:13:29.046Z,15.74
2018-08-30T00:15:14.837Z,15.80
2018-08-30T00:16:14.792Z,15.71
2018-08-30T00:17:14.714Z,15.77
2018-08-30T00:18:14.723Z,15.78
2018-08-30T00:19:14.679Z,15.85
2018-08-30T00:20:14.652Z,15.71
2018-08-30T00:21:14.851Z,15.76
2018-08-30T00:22:14.581Z,15.78
2018-08-30T00:23:14.535Z,15.67
2018-08-30T00:25:54.023Z,15.73
2018-08-30T00:26:54.529Z,15.78
2018-08-30T00:27:53.918Z,15.81
2018-08-30T00:28:53.899Z,15.80
2018-08-30T00:29:54.023Z,15.77
2018-08-30T00:30:53.826Z,15.73
2018-08-30T00:31:53.762Z,15.78
2018-08-30T00:32:53.769Z,15.77
2018-08-30T00:33:53.715Z,15.68
2018-08-30T00:34:53.695Z,15.68
2018-08-30T00:35:53.665Z,15.73
2018-08-30T00:36:53.656Z,15.64
2018-08-30T00:37:53.621Z,15.70
2018-08-30T00:38:53.593Z,15.53
2018-08-30T00:40:46.232Z,15.59
2018-08-30T00:41:46.004Z,15.59
2018-08-30T00:42:44.951Z,15.60
2018-08-30T00:43:46.214Z,15.44
2018-08-30T00:44:44.831Z,15.51
2018-08-30T00:45:44.827Z,15.44
2018-08-30T00:46:44.796Z,15.56
2018-08-30T00:47:45.778Z,15.49
2018-08-30T00:49:44.135Z,15.38
2018-08-30T00:50:40.706Z,15.35
2018-08-30T00:51:40.635Z,15.38
2018-08-30T00:52:40.569Z,15.31
2018-08-30T00:53:40.552Z,15.34
2018-08-30T00:54:40.505Z,15.33
2018-08-30T00:55:40.486Z,15.33
2018-08-30T00:56:41.455Z,15.31
2018-08-30T00:57:40.473Z,15.23
2018-08-30T00:58:45.909Z,15.25
2018-08-30T00:59:40.467Z,15.12
2018-08-30T01:00:40.424Z,15.23
2018-08-30T01:01:45.699Z,15.22
2018-08-30T01:02:44.882Z,15.09
2018-08-30T01:03:40.298Z,15.16
2018-08-30T01:04:41.215Z,15.13
2018-08-30T01:05:40.178Z,15.09
2018-08-30T01:07:30.403Z,15.19
2018-08-30T01:09:47.907Z,15.16
2018-08-30T01:10:46.603Z,15.03
2018-08-30T01:11:46.555Z,15.15
2018-08-30T01:12:48.572Z,15.05
2018-08-30T01:13:47.481Z,15.04
2018-08-30T01:14:47.485Z,15.04
2018-08-30T01:15:46.404Z,15.13
2018-08-30T01:16:48.420Z,15.07
2018-08-30T01:17:46.372Z,15.00
2018-08-30T01:18:47.377Z,15.04
2018-08-30T01:19:46.322Z,14.94
2018-08-30T01:20:46.304Z,15.03
2018-08-30T01:21:46.266Z,15.05
2018-08-30T01:22:46.250Z,15.07
2018-08-30T01:23:46.208Z,15.00
2018-08-30T01:24:47.194Z,15.00
2018-08-30T01:25:46.168Z,15.07
2018-08-30T01:26:46.158Z,15.03
2018-08-30T01:28:32.393Z,15.04
2018-08-30T01:29:33.363Z,14.97
2018-08-30T01:31:31.013Z,15.03
2018-08-30T01:32:28.859Z,15.00
2018-08-30T01:33:29.780Z,14.87
2018-08-30T01:34:27.722Z,14.94
2018-08-30T01:35:27.730Z,14.91
2018-08-30T01:36:29.690Z,14.95
2018-08-30T01:37:27.667Z,14.98
2018-08-30T01:38:29.658Z,14.97
2018-08-30T01:39:27.603Z,15.03
2018-08-30T01:40:27.601Z,15.05
2018-08-30T01:41:27.548Z,14.98
2018-08-30T01:42:27.547Z,15.00
2018-08-30T01:43:27.498Z,14.97
2018-08-30T01:44:28.502Z,14.94
2018-08-30T01:46:31.902Z,15.05
2018-08-30T01:47:31.821Z,15.00
2018-08-30T01:48:31.776Z,15.05
2018-08-30T01:49:31.730Z,15.01
2018-08-30T01:50:31.682Z,15.01
2018-08-30T01:51:32.707Z,15.09
2018-08-30T01:52:31.635Z,15.03
2018-08-30T01:53:31.640Z,14.95
2018-08-30T01:54:31.620Z,15.05
2018-08-30T01:55:32.607Z,14.98
2018-08-30T01:56:31.610Z,14.98
2018-08-30T01:57:31.494Z,15.00
2018-08-30T01:58:31.481Z,15.04
2018-08-30T01:59:31.466Z,15.01
2018-08-30T02:00:31.419Z,14.98
2018-08-30T02:02:37.155Z,15.04
2018-08-30T02:03:36.899Z,15.09
2018-08-30T02:04:36.883Z,15.04
2018-08-30T02:05:36.867Z,15.00
2018-08-30T02:06:38.862Z,15.04
2018-08-30T02:07:36.830Z,15.09
2018-08-30T02:08:36.805Z,15.09
2018-08-30T02:09:36.756Z,15.09
2018-08-30T02:10:36.773Z,15.09
2018-08-30T02:11:36.714Z,15.03
2018-08-30T02:12:37.688Z,15.09
2018-08-30T02:13:36.669Z,15.05
2018-08-30T02:15:57.019Z,15.16
2018-08-30T02:16:57.066Z,15.09
2018-08-30T02:17:56.947Z,15.13
2018-08-30T02:18:56.929Z,15.18
2018-08-30T02:19:56.879Z,15.01
2018-08-30T02:20:57.871Z,15.05
2018-08-30T02:21:56.848Z,15.05
2018-08-30T02:22:56.792Z,15.09
2018-08-30T02:23:56.758Z,15.13
2018-08-30T02:24:57.769Z,15.11
2018-08-30T02:25:56.721Z,15.13
2018-08-30T02:26:56.691Z,15.16
2018-08-30T02:27:56.666Z,15.13
2018-08-30T02:28:56.661Z,15.13
2018-08-30T02:29:56.634Z,15.16
2018-08-30T02:30:56.597Z,15.18
2018-08-30T02:31:56.595Z,15.19
2018-08-30T02:32:56.544Z,15.19
2018-08-30T02:33:57.529Z,15.13
2018-08-30T02:34:56.511Z,15.20
2018-08-30T02:37:06.695Z,15.15
2018-08-30T02:38:06.732Z,15.18
2018-08-30T02:40:01.705Z,15.22
2018-08-30T02:41:00.594Z,15.22
2018-08-30T02:42:01.574Z,15.15
2018-08-30T02:43:00.562Z,15.11
2018-08-30T02:44:00.515Z,15.16
2018-08-30T02:45:00.518Z,15.09
2018-08-30T02:46:00.500Z,15.27
2018-08-30T02:47:00.463Z,15.23
2018-08-30T02:48:06.020Z,15.13
2018-08-30T02:49:03.185Z,15.16
2018-08-30T02:50:03.105Z,15.31
2018-08-30T02:51:03.042Z,15.27
2018-08-30T02:52:03.012Z,15.19
2018-08-30T02:53:03.018Z,15.12
2018-08-30T02:54:04.983Z,15.20
2018-08-30T02:55:02.943Z,15.22
2018-08-30T02:56:02.966Z,15.16
2018-08-30T02:57:02.880Z,15.19
2018-08-30T02:58:02.865Z,15.23
2018-08-30T02:59:02.838Z,15.20
2018-08-30T03:00:03.816Z,15.18
2018-08-30T03:01:02.787Z,15.13
2018-08-30T03:02:02.768Z,15.12
2018-08-30T03:03:58.990Z,15.20
2018-08-30T03:04:58.933Z,15.16
2018-08-30T03:05:58.920Z,15.20
2018-08-30T03:06:59.919Z,15.22
2018-08-30T03:07:58.884Z,15.15
2018-08-30T03:08:59.846Z,15.16
2018-08-30T03:09:58.805Z,15.20
2018-08-30T03:10:58.773Z,15.19
2018-08-30T03:11:58.741Z,15.23
2018-08-30T03:12:59.775Z,15.23
2018-08-30T03:13:58.695Z,15.19
2018-08-30T03:15:00.707Z,15.19
2018-08-30T03:15:58.646Z,15.19
2018-08-30T03:17:00.640Z,15.12
2018-08-30T03:17:58.619Z,15.13
2018-08-30T03:18:58.610Z,15.09
2018-08-30T03:19:58.560Z,15.12
2018-08-30T03:20:58.539Z,15.13
2018-08-30T03:21:58.526Z,15.19
2018-08-30T03:22:58.489Z,15.15
2018-08-30T03:23:58.452Z,15.23
2018-08-30T03:24:58.438Z,15.13
2018-08-30T03:25:58.408Z,15.15
2018-08-30T03:27:00.398Z,15.20
2018-08-30T03:27:58.377Z,15.18
2018-08-30T03:29:44.643Z,15.11
2018-08-30T03:30:44.600Z,15.19
2018-08-30T03:31:44.548Z,15.18
2018-08-30T03:32:44.518Z,15.16
2018-08-30T03:33:44.483Z,15.23
2018-08-30T03:34:44.486Z,15.13
2018-08-30T03:35:44.422Z,15.13
2018-08-30T03:36:44.400Z,15.07
2018-08-30T03:37:44.362Z,15.15
2018-08-30T03:38:44.353Z,15.19
2018-08-30T03:40:40.066Z,15.22
2018-08-30T03:41:39.956Z,15.13
2018-08-30T03:42:39.924Z,15.23
2018-08-30T03:43:39.969Z,15.16
2018-08-30T03:44:39.856Z,15.19
2018-08-30T03:45:39.864Z,15.22
2018-08-30T03:46:39.790Z,15.13
2018-08-30T03:47:39.798Z,15.09
2018-08-30T03:48:39.757Z,15.19
2018-08-30T03:49:41.731Z,15.20
2018-08-30T03:50:39.700Z,15.18
2018-08-30T03:51:29.687Z,15.20
2018-08-30T03:52:29.615Z,15.23
2018-08-30T03:53:29.555Z,15.13
2018-08-30T03:54:29.534Z,15.15
2018-08-30T03:55:29.505Z,15.07
2018-08-30T03:56:29.487Z,15.13
2018-08-30T03:57:29.473Z,15.19
2018-08-30T03:58:30.448Z,15.19
2018-08-30T03:59:29.392Z,15.18
2018-08-30T04:00:29.395Z,15.12
2018-08-30T04:01:29.366Z,15.18
2018-08-30T04:02:29.349Z,15.13
2018-08-30T04:03:29.314Z,15.18
2018-08-30T04:04:30.304Z,15.15
2018-08-30T04:05:29.253Z,15.18
2018-08-30T04:06:30.260Z,15.16
2018-08-30T04:07:29.201Z,15.25
2018-08-30T04:08:29.174Z,15.16
2018-08-30T04:10:23.712Z,15.22
2018-08-30T04:11:24.658Z,15.11
2018-08-30T04:12:23.581Z,15.13
2018-08-30T04:13:25.645Z,15.03
2018-08-30T04:14:23.550Z,15.03
2018-08-30T04:15:24.529Z,15.20
2018-08-30T04:16:23.488Z,15.18
2018-08-30T04:17:23.467Z,15.18
2018-08-30T04:18:23.443Z,15.07
2018-08-30T04:19:24.458Z,15.20
2018-08-30T04:20:23.389Z,15.13
2018-08-30T04:21:25.379Z,15.20
2018-08-30T04:22:23.349Z,15.15
2018-08-30T04:23:23.326Z,15.15
2018-08-30T04:24:23.309Z,15.16
2018-08-30T04:25:24.302Z,15.19
2018-08-30T04:26:23.250Z,15.20
2018-08-30T04:27:23.246Z,15.18
2018-08-30T04:28:23.238Z,15.19
2018-08-30T04:29:23.294Z,15.15
2018-08-30T04:30:23.174Z,15.22
2018-08-30T04:31:23.222Z,15.15
2018-08-30T04:32:23.117Z,15.15
2018-08-30T04:33:28.010Z,15.16
2018-08-30T04:34:23.067Z,15.12
2018-08-30T04:35:29.949Z,15.13
2018-08-30T04:36:23.006Z,15.13
2018-08-30T04:37:23.003Z,15.15
2018-08-30T04:38:22.950Z,15.09
2018-08-30T04:39:24.949Z,15.18
2018-08-30T04:40:22.907Z,15.11
2018-08-30T04:41:22.888Z,15.11
2018-08-30T04:42:22.960Z,15.20
2018-08-30T04:43:22.867Z,15.19
2018-08-30T04:45:14.230Z,15.23
2018-08-30T04:46:16.180Z,15.13
2018-08-30T04:47:14.127Z,15.20
2018-08-30T04:48:15.102Z,15.16
2018-08-30T04:49:14.081Z,15.22
2018-08-30T04:50:14.217Z,15.19
2018-08-30T04:51:14.088Z,15.19
2018-08-30T04:52:18.916Z,15.16
2018-08-30T04:53:13.958Z,15.19
2018-08-30T04:54:13.938Z,15.22
2018-08-30T04:55:13.915Z,15.25
2018-08-30T04:56:14.912Z,15.13
2018-08-30T04:57:13.878Z,15.19
2018-08-30T04:59:02.263Z,15.20
2018-08-30T05:00:08.037Z,15.23
2018-08-30T05:01:02.165Z,15.23
2018-08-30T05:02:04.182Z,15.33
2018-08-30T05:03:02.284Z,15.30
2018-08-30T05:04:04.132Z,15.30
2018-08-30T05:05:02.046Z,15.34
2018-08-30T05:06:02.041Z,15.28
2018-08-30T05:07:02.023Z,15.35
2018-08-30T05:08:02.095Z,15.28
2018-08-30T05:09:01.958Z,15.30
2018-08-30T05:10:02.055Z,15.30
2018-08-30T05:11:01.903Z,15.33
2018-08-30T05:12:01.886Z,15.30
2018-08-30T05:13:01.878Z,15.31
2018-08-30T05:14:01.830Z,15.34
2018-08-30T05:15:01.822Z,15.31
2018-08-30T05:16:53.231Z,15.28
2018-08-30T05:17:53.213Z,15.35
2018-08-30T05:18:53.179Z,15.37
2018-08-30T05:19:53.172Z,15.43
2018-08-30T05:20:53.129Z,15.37
2018-08-30T05:21:53.108Z,15.34
2018-08-30T05:22:53.048Z,15.40
2018-08-30T05:23:53.047Z,15.40
2018-08-30T05:24:53.010Z,15.41
2018-08-30T05:25:54.052Z,15.44
2018-08-30T05:26:52.975Z,15.48
2018-08-30T05:27:54.937Z,15.51
2018-08-30T05:28:52.905Z,15.46
2018-08-30T05:29:52.978Z,15.48
2018-08-30T05:30:52.849Z,15.44
2018-08-30T05:31:54.864Z,15.41
2018-08-30T05:32:52.813Z,15.43
2018-08-30T05:33:53.781Z,15.49
2018-08-30T05:34:52.806Z,15.44
2018-08-30T05:35:52.846Z,15.58
2018-08-30T05:36:52.761Z,15.51
2018-08-30T05:37:52.702Z,15.52
2018-08-30T05:38:52.672Z,15.56
2018-08-30T05:39:52.635Z,15.53
2018-08-30T05:40:52.606Z,15.48
2018-08-30T05:41:52.583Z,15.43
2018-08-30T05:42:52.685Z,15.60
2018-08-30T05:43:52.556Z,15.52
2018-08-30T05:44:52.506Z,15.51
2018-08-30T05:45:53.498Z,15.56
2018-08-30T05:47:39.871Z,15.55
2018-08-30T05:48:45.615Z,15.67
2018-08-30T05:49:39.796Z,15.56
2018-08-30T05:50:39.786Z,15.58
2018-08-30T05:51:39.732Z,15.66
2018-08-30T05:52:40.721Z,15.67
2018-08-30T05:53:39.700Z,15.58
2018-08-30T05:54:39.683Z,15.64
2018-08-30T05:55:39.631Z,15.56
2018-08-30T05:56:39.642Z,15.68
2018-08-30T05:57:39.592Z,15.70
2018-08-30T05:58:39.570Z,15.60
2018-08-30T05:59:39.558Z,15.76
2018-08-30T06:00:39.538Z,15.77
2018-08-30T06:01:39.504Z,15.76
2018-08-30T06:02:39.472Z,15.77
2018-08-30T06:03:39.448Z,15.78
2018-08-30T06:04:39.429Z,15.78
2018-08-30T06:05:39.409Z,15.74
2018-08-30T06:06:39.380Z,15.84
2018-08-30T06:07:39.344Z,15.80
2018-08-30T06:08:39.324Z,15.81
2018-08-30T06:09:39.300Z,15.81
2018-08-30T06:10:39.277Z,15.81
2018-08-30T06:11:39.322Z,15.77
2018-08-30T06:12:39.235Z,15.78
2018-08-30T06:13:40.203Z,15.73
2018-08-30T06:14:39.201Z,15.70
2018-08-30T06:15:40.159Z,15.80
2018-08-30T06:16:39.133Z,15.78
2018-08-30T06:17:39.110Z,15.74
2018-08-30T06:18:39.083Z,15.78
2018-08-30T06:19:40.066Z,15.78
2018-08-30T06:20:39.029Z,15.73
2018-08-30T06:21:39.005Z,15.78
2018-08-30T06:22:38.981Z,15.77
2018-08-30T06:23:38.973Z,15.81
2018-08-30T06:24:38.935Z,15.81
2018-08-30T06:25:38.923Z,15.91
2018-08-30T06:27:35.725Z,15.89
2018-08-30T06:28:35.668Z,15.81
2018-08-30T06:29:35.961Z,15.76
2018-08-30T06:30:35.606Z,15.88
2018-08-30T06:31:35.580Z,15.93
2018-08-30T06:32:35.672Z,15.88
2018-08-30T06:33:35.541Z,15.93
2018-08-30T06:34:35.599Z,15.92
2018-08-30T06:35:35.511Z,16.04
2018-08-30T06:36:35.577Z,15.93
2018-08-30T06:37:35.456Z,15.91
2018-08-30T06:38:35.505Z,15.95
2018-08-30T06:39:35.398Z,16.03
2018-08-30T06:40:35.372Z,16.03
2018-08-30T06:41:36.435Z,15.95
2018-08-30T06:42:35.319Z,16.10
2018-08-30T06:43:35.291Z,16.10
2018-08-30T06:44:35.264Z,16.04
2018-08-30T06:45:35.334Z,16.04
2018-08-30T06:46:35.220Z,16.10
2018-08-30T06:47:35.203Z,16.06
2018-08-30T06:48:35.271Z,16.11
2018-08-30T06:49:35.144Z,16.11
2018-08-30T06:50:35.164Z,16.17
2018-08-30T06:51:35.090Z,16.18
2018-08-30T06:52:35.175Z,16.17
2018-08-30T06:53:35.046Z,16.27
2018-08-30T06:54:36.114Z,16.23
2018-08-30T06:55:35.014Z,16.30
2018-08-30T06:56:34.997Z,16.30
2018-08-30T06:57:34.953Z,16.30
2018-08-30T06:58:35.029Z,16.37
2018-08-30T06:59:35.017Z,16.36
2018-08-30T07:00:34.901Z,16.29
2018-08-30T07:01:34.859Z,16.33
2018-08-30T07:02:34.932Z,16.30
2018-08-30T07:03:34.798Z,16.26
2018-08-30T07:04:34.861Z,16.33
2018-08-30T07:05:34.774Z,16.30
2018-08-30T07:06:34.728Z,16.36
2018-08-30T07:07:34.713Z,16.25
2018-08-30T07:08:34.694Z,16.30
2018-08-30T07:09:34.659Z,16.33
2018-08-30T07:10:34.626Z,16.30
2018-08-30T07:11:34.617Z,16.32
2018-08-30T07:12:34.581Z,16.33
2018-08-30T07:13:34.596Z,16.37
2018-08-30T07:14:34.544Z,16.36
2018-08-30T07:15:34.511Z,16.41
2018-08-30T07:16:34.486Z,16.29
2018-08-30T07:17:35.558Z,16.40
2018-08-30T07:18:34.438Z,16.36
2018-08-30T07:19:34.416Z,16.30
2018-08-30T07:21:25.437Z,16.29
2018-08-30T07:22:25.371Z,16.36
2018-08-30T07:23:25.349Z,16.40
2018-08-30T07:24:25.375Z,16.47
2018-08-30T07:25:25.362Z,16.52
2018-08-30T07:26:25.285Z,16.57
2018-08-30T07:27:25.283Z,16.62
2018-08-30T07:28:25.269Z,16.59
2018-08-30T07:29:25.225Z,16.70
2018-08-30T07:30:25.177Z,16.69
2018-08-30T07:31:25.161Z,16.80
2018-08-30T07:32:25.124Z,16.73
2018-08-30T07:33:25.256Z,16.60
2018-08-30T07:34:25.099Z,16.62
2018-08-30T07:35:25.128Z,16.75
2018-08-30T07:36:25.045Z,16.73
2018-08-30T07:37:25.008Z,16.72
2018-08-30T07:38:24.985Z,16.73
2018-08-30T07:39:25.979Z,16.81
2018-08-30T07:40:24.936Z,16.75
2018-08-30T07:41:24.909Z,16.75
2018-08-30T07:42:24.970Z,16.70
2018-08-30T07:43:24.882Z,16.77
2018-08-30T07:44:24.913Z,16.88
2018-08-30T07:45:24.804Z,16.95
2018-08-30T07:46:24.894Z,16.87
2018-08-30T07:47:24.752Z,16.91
2018-08-30T07:48:24.806Z,16.99
2018-08-30T07:49:24.733Z,16.90
2018-08-30T07:50:24.725Z,16.96
2018-08-30T07:51:24.653Z,16.85
2018-08-30T07:52:24.734Z,16.84
2018-08-30T07:53:24.623Z,16.85
2018-08-30T07:54:24.710Z,16.95
2018-08-30T07:55:24.563Z,16.88
2018-08-30T07:56:24.543Z,16.90
2018-08-30T07:57:24.530Z,16.92
2018-08-30T07:58:24.487Z,16.84
2018-08-30T07:59:24.483Z,16.85
2018-08-30T08:00:24.445Z,16.84
2018-08-30T08:01:24.491Z,16.91
2018-08-30T08:02:24.383Z,16.87
2018-08-30T08:03:24.369Z,16.96
2018-08-30T08:04:24.396Z,17.03
2018-08-30T08:05:24.318Z,17.07
2018-08-30T08:06:24.293Z,17.03
2018-08-30T08:07:24.260Z,17.17
2018-08-30T08:09:10.610Z,17.20
2018-08-30T08:10:10.558Z,17.28
2018-08-30T08:11:10.526Z,17.35
2018-08-30T08:12:10.506Z,17.39
2018-08-30T08:13:10.478Z,17.43
2018-08-30T08:14:10.465Z,17.39
2018-08-30T08:15:10.448Z,17.39
2018-08-30T08:16:10.395Z,17.53
2018-08-30T08:17:10.460Z,17.60
2018-08-30T08:18:10.349Z,17.54
2018-08-30T08:19:10.470Z,17.58
2018-08-30T08:20:10.355Z,17.53
2018-08-30T08:21:10.384Z,17.57
2018-08-30T08:22:10.278Z,17.45
2018-08-30T08:23:10.235Z,17.40
2018-08-30T08:24:10.210Z,17.45
2018-08-30T08:25:10.226Z,17.62
2018-08-30T08:26:10.155Z,17.57
2018-08-30T08:27:10.124Z,17.53
2018-08-30T08:28:10.108Z,17.51
2018-08-30T08:29:10.090Z,17.47
2018-08-30T08:30:10.045Z,17.51
2018-08-30T08:31:10.036Z,17.47
2018-08-30T08:32:10.034Z,17.38
2018-08-30T08:33:09.975Z,17.40
2018-08-30T08:34:09.952Z,17.30
2018-08-30T08:35:09.976Z,17.42
2018-08-30T08:36:09.902Z,17.45
2018-08-30T08:37:09.889Z,17.43
2018-08-30T08:38:09.850Z,17.49
2018-08-30T08:39:09.836Z,17.66
2018-08-30T08:40:09.809Z,17.73
2018-08-30T08:41:09.787Z,17.73
2018-08-30T08:42:09.766Z,17.83
2018-08-30T08:43:09.723Z,17.77
2018-08-30T08:44:14.442Z,17.65
2018-08-30T08:45:09.676Z,17.89
2018-08-30T08:46:09.648Z,17.89
2018-08-30T08:47:09.623Z,17.98
2018-08-30T08:48:10.690Z,17.98
2018-08-30T08:49:09.569Z,18.17
2018-08-30T08:50:09.562Z,18.13
2018-08-30T08:51:09.547Z,18.13
2018-08-30T08:52:11.540Z,18.13
2018-08-30T08:53:09.478Z,18.04
2018-08-30T08:54:09.453Z,18.01
2018-08-30T08:55:09.514Z,18.01
2018-08-30T08:56:09.413Z,18.05
2018-08-30T08:57:09.408Z,18.07
2018-08-30T08:58:09.362Z,18.20
2018-08-30T08:59:09.474Z,18.20
2018-08-30T09:00:09.316Z,18.09
2018-08-30T09:01:09.281Z,18.26
2018-08-30T09:02:09.254Z,18.16
2018-08-30T09:03:09.234Z,18.20
2018-08-30T09:04:09.222Z,18.26
2018-08-30T09:05:09.262Z,18.41
2018-08-30T09:06:09.162Z,18.46
2018-08-30T09:07:09.159Z,18.46
2018-08-30T09:08:10.203Z,18.59
2018-08-30T09:09:09.081Z,18.62
2018-08-30T09:10:09.061Z,18.60
2018-08-30T09:11:09.093Z,18.69
2018-08-30T09:12:09.030Z,18.68
2018-08-30T09:13:08.985Z,18.78
2018-08-30T09:14:09.016Z,18.91
2018-08-30T09:15:08.937Z,18.89
2018-08-30T09:16:09.024Z,18.90
2018-08-30T09:17:08.898Z,19.01
2018-08-30T09:18:57.954Z,18.89
2018-08-30T09:19:57.932Z,18.97
2018-08-30T09:20:57.970Z,18.87
2018-08-30T09:21:57.879Z,18.79
2018-08-30T09:22:57.985Z,18.71
2018-08-30T09:23:57.832Z,18.78
2018-08-30T09:24:57.824Z,18.68
2018-08-30T09:25:57.782Z,18.62
2018-08-30T09:26:57.924Z,18.65
2018-08-30T09:27:57.737Z,18.69
2018-08-30T09:28:58.783Z,18.78
2018-08-30T09:29:57.681Z,18.86
2018-08-30T09:30:57.694Z,19.02
2018-08-30T09:31:57.680Z,19.20
2018-08-30T09:32:57.616Z,19.21
2018-08-30T09:33:57.613Z,19.13
2018-08-30T09:34:57.624Z,19.05
2018-08-30T09:35:57.547Z,19.06
2018-08-30T09:36:57.534Z,18.93
2018-08-30T09:37:57.514Z,18.91
2018-08-30T09:38:57.483Z,18.90
2018-08-30T09:39:58.542Z,18.93
2018-08-30T09:40:57.414Z,19.23
2018-08-30T09:41:57.433Z,19.23
2018-08-30T09:42:57.372Z,19.17
2018-08-30T09:43:57.341Z,19.13
2018-08-30T09:44:57.324Z,19.31
2018-08-30T09:45:59.403Z,19.45
2018-08-30T09:46:57.259Z,19.62
2018-08-30T09:47:57.269Z,19.90
2018-08-30T09:48:57.226Z,19.95
2018-08-30T09:49:57.202Z,19.89
2018-08-30T09:50:57.186Z,19.72
2018-08-30T09:51:57.148Z,19.49
2018-08-30T09:52:57.120Z,19.58
2018-08-30T09:53:57.092Z,19.68
2018-08-30T09:54:57.068Z,19.55
2018-08-30T09:55:57.053Z,19.57
2018-08-30T09:56:57.317Z,19.65
2018-08-30T09:57:56.999Z,19.65
2018-08-30T09:58:56.970Z,19.58
2018-08-30T09:59:57.156Z,19.35
2018-08-30T10:00:56.934Z,19.15
2018-08-30T10:01:56.925Z,19.16
2018-08-30T10:02:56.880Z,19.13
2018-08-30T10:03:56.845Z,19.01
2018-08-30T10:04:56.892Z,18.93
2018-08-30T10:05:56.800Z,19.01
2018-08-30T10:06:56.774Z,18.96
2018-08-30T10:07:56.894Z,18.99
2018-08-30T10:08:56.748Z,18.96
2018-08-30T10:09:57.931Z,19.27
2018-08-30T10:10:56.671Z,19.40
2018-08-30T10:11:57.838Z,19.52
2018-08-30T10:12:56.629Z,19.52
2018-08-30T10:13:56.641Z,19.64
2018-08-30T10:14:56.573Z,19.64
2018-08-30T10:15:56.578Z,19.80
2018-08-30T10:16:56.533Z,19.83
2018-08-30T10:17:56.550Z,19.86
2018-08-30T10:18:56.496Z,19.79
2018-08-30T10:19:56.664Z,19.87
2018-08-30T10:20:56.430Z,20.07
2018-08-30T10:21:56.429Z,20.10
2018-08-30T10:22:56.493Z,20.10
2018-08-30T10:23:56.373Z,20.04
2018-08-30T10:24:56.344Z,19.94
2018-08-30T10:25:56.320Z,19.87
2018-08-30T10:26:57.434Z,19.87
2018-08-30T10:27:56.276Z,19.64
2018-08-30T10:28:56.329Z,19.60
2018-08-30T10:29:56.215Z,19.47
2018-08-30T10:30:56.230Z,19.53
2018-08-30T10:31:56.196Z,19.55
2018-08-30T10:32:57.268Z,19.62
2018-08-30T10:33:56.147Z,19.53
2018-08-30T10:34:56.092Z,19.49
2018-08-30T10:35:56.167Z,19.46
2018-08-30T10:36:56.047Z,19.62
2018-08-30T10:37:56.023Z,19.68
2018-08-30T10:38:55.999Z,19.94
2018-08-30T10:39:55.965Z,20.13
2018-08-30T10:40:57.025Z,20.37
2018-08-30T10:41:55.915Z,20.44
2018-08-30T10:42:56.969Z,20.50
2018-08-30T10:43:55.874Z,20.37
2018-08-30T10:44:57.000Z,20.25
2018-08-30T10:45:55.842Z,20.01
2018-08-30T10:46:55.803Z,20.05
2018-08-30T10:47:55.774Z,20.07
2018-08-30T10:48:55.792Z,20.20
2018-08-30T10:49:55.812Z,20.19
2018-08-30T10:50:56.807Z,20.20
2018-08-30T10:51:55.677Z,20.10
2018-08-30T10:52:55.777Z,19.92
2018-08-30T10:53:55.638Z,19.87
2018-08-30T10:54:56.708Z,19.79
2018-08-30T10:55:55.610Z,19.95
2018-08-30T10:56:55.702Z,19.78
2018-08-30T10:57:55.547Z,19.76
2018-08-30T10:58:55.618Z,19.94
2018-08-30T10:59:55.488Z,19.90
2018-08-30T11:00:55.484Z,19.97
2018-08-30T11:01:55.452Z,19.76
2018-08-30T11:02:55.416Z,19.70
2018-08-30T11:03:55.448Z,19.71
2018-08-30T11:04:55.449Z,19.67
2018-08-30T11:05:55.384Z,19.64
2018-08-30T11:06:55.389Z,19.71
2018-08-30T11:07:55.337Z,19.76
2018-08-30T11:08:56.299Z,19.86
2018-08-30T11:09:55.258Z,19.82
2018-08-30T11:10:55.282Z,19.80
2018-08-30T11:11:55.200Z,19.79
2018-08-30T11:12:56.337Z,19.86
2018-08-30T11:13:55.158Z,19.98
2018-08-30T11:14:56.250Z,20.16
2018-08-30T11:15:55.107Z,20.10
2018-08-30T11:16:55.118Z,20.26
2018-08-30T11:17:55.055Z,20.31
2018-08-30T11:18:56.057Z,20.17
2018-08-30T11:19:55.000Z,20.13
2018-08-30T11:20:54.992Z,20.15
2018-08-30T11:21:59.564Z,20.31
2018-08-30T11:22:54.937Z,20.31
2018-08-30T11:23:56.012Z,20.41
2018-08-30T11:24:54.889Z,20.41
2018-08-30T11:25:55.001Z,20.33
2018-08-30T11:26:54.842Z,20.25
2018-08-30T11:27:54.890Z,20.19
2018-08-30T11:28:54.808Z,20.25
2018-08-30T11:29:56.822Z,20.31
2018-08-30T11:30:54.751Z,20.44
2018-08-30T11:31:54.778Z,20.41
2018-08-30T11:32:54.700Z,20.60
2018-08-30T11:33:54.685Z,20.64
2018-08-30T11:34:54.656Z,20.68
2018-08-30T11:35:54.614Z,20.73
2018-08-30T11:36:54.637Z,20.72
2018-08-30T11:37:54.616Z,20.68
2018-08-30T11:38:54.557Z,20.68
2018-08-30T11:39:54.527Z,20.60
2018-08-30T11:40:55.558Z,20.66
2018-08-30T11:41:54.489Z,20.71
2018-08-30T11:42:54.551Z,20.75
2018-08-30T11:43:54.430Z,20.85
2018-08-30T11:44:54.455Z,20.75
2018-08-30T11:45:54.374Z,20.73
2018-08-30T11:46:54.368Z,20.79
2018-08-30T11:47:54.358Z,20.93
2018-08-30T11:48:55.508Z,21.01
2018-08-30T11:49:54.289Z,21.28
2018-08-30T11:50:55.316Z,21.38
2018-08-30T11:51:54.293Z,21.48
2018-08-30T11:52:55.334Z,21.56
2018-08-30T11:53:54.198Z,21.75
2018-08-30T11:54:54.177Z,21.86
2018-08-30T11:55:54.143Z,21.94
2018-08-30T11:56:54.230Z,21.91
2018-08-30T11:57:54.102Z,21.89
2018-08-30T11:58:54.084Z,21.71
2018-08-30T11:59:54.048Z,21.40
2018-08-30T12:00:55.142Z,21.27
2018-08-30T12:01:54.009Z,21.15
2018-08-30T12:03:52.135Z,21.37
2018-08-30T12:04:52.065Z,21.26
2018-08-30T12:07:10.504Z,21.36
2018-08-30T12:08:10.488Z,21.43
2018-08-30T12:09:10.390Z,21.64
2018-08-30T12:10:10.438Z,21.79
2018-08-30T12:11:10.439Z,21.83
2018-08-30T12:12:10.410Z,21.93
2018-08-30T12:13:10.292Z,21.86
2018-08-30T12:14:11.344Z,21.83
2018-08-30T12:15:10.248Z,21.73
2018-08-30T12:16:10.243Z,21.56
2018-08-30T12:17:10.205Z,21.59
2018-08-30T12:18:10.250Z,21.38
2018-08-30T12:19:10.147Z,21.19
2018-08-30T12:20:10.191Z,20.96
2018-08-30T12:21:10.105Z,20.88
2018-08-30T12:22:10.168Z,20.91
2018-08-30T12:23:10.052Z,20.98
2018-08-30T12:24:11.100Z,20.96
2018-08-30T12:25:10.016Z,20.91
2018-08-30T12:26:10.087Z,20.98
2018-08-30T12:27:09.960Z,20.94
2018-08-30T12:28:10.014Z,20.82
2018-08-30T12:29:09.953Z,20.96
2018-08-30T12:30:09.935Z,20.85
2018-08-30T12:31:09.985Z,20.87
2018-08-30T12:32:11.885Z,20.85
2018-08-30T12:33:09.886Z,20.90
2018-08-30T12:34:09.928Z,20.87
2018-08-30T12:35:09.945Z,20.82
2018-08-30T12:36:11.835Z,20.85
2018-08-30T12:37:09.791Z,20.83
2018-08-30T12:38:11.875Z,20.83
2018-08-30T12:39:09.704Z,20.85
2018-08-30T12:42:02.835Z,21.03
2018-08-30T12:51:39.737Z,21.18
2018-08-30T12:52:37.418Z,21.11
2018-08-30T12:54:07.142Z,21.03
2018-08-30T12:54:37.373Z,20.87
2018-08-30T12:56:14.073Z,20.88
2018-08-30T12:56:37.226Z,21.00
2018-08-30T12:57:43.988Z,21.00
2018-08-30T12:58:37.284Z,21.05
2018-08-30T12:59:37.348Z,21.22
2018-08-30T13:00:37.234Z,21.33
2018-08-30T13:01:39.303Z,21.37
2018-08-30T13:02:37.222Z,21.43
2018-08-30T13:03:43.107Z,21.45
2018-08-30T13:04:37.376Z,21.38
2018-08-30T13:06:06.296Z,21.15
2018-08-30T13:06:37.052Z,21.16
2018-08-30T13:07:43.698Z,21.03
2018-08-30T13:08:37.241Z,21.06
2018-08-30T13:24:50.658Z,20.41
2018-08-30T13:25:50.710Z,20.42
2018-08-30T13:30:17.498Z,19.89
2018-08-30T13:31:17.350Z,19.53
2018-08-30T13:33:19.906Z,18.82
2018-08-30T13:34:18.081Z,18.65
2018-08-30T13:35:33.702Z,18.35
2018-08-30T13:36:18.026Z,18.23
2018-08-30T13:37:30.916Z,18.34
2018-08-30T13:38:18.195Z,18.23
2018-08-30T13:39:31.131Z,18.28
2018-08-30T13:40:18.169Z,18.42
2018-08-30T13:41:22.947Z,18.39
2018-08-30T13:42:18.039Z,18.44
2018-08-30T13:47:59.201Z,19.09
2018-08-30T13:48:57.822Z,19.12
2018-08-30T13:49:56.357Z,19.09
2018-08-30T13:50:56.697Z,19.17
2018-08-30T13:51:56.616Z,19.20
2018-08-30T13:53:11.482Z,19.12
2018-08-30T13:53:56.329Z,19.09